Time;durP1;ratioP1;P1;durP2;ratioP2;P2;SDS_P1;SDS_P2;PMS_P1;PMS_P2;Temp;Humidity;BMP_temperature;BMP_pressure;BME280_temperature;BME280_humidity;BME280_pressure;Samples;Min_cycle;Max_cycle;Signal;HPM_P1;HPM_P2
2022/03/30 00:00:14;;;;;;;8.73;3.03;;;16.60;85.20;;;;;;1997527;28;20463;-73
2022/03/30 00:01:13;;;;;;;7.22;3.15;;;16.60;85.50;;;;;;1997361;28;20416;-73
2022/03/30 00:02:11;;;;;;;8.50;3.10;;;16.60;85.40;;;;;;1997454;28;20181;-73
2022/03/30 00:03:10;;;;;;;6.83;3.27;;;16.60;85.40;;;;;;1997604;28;20185;-73
2022/03/30 00:04:08;;;;;;;5.23;3.00;;;16.60;85.40;;;;;;1997522;28;20181;-73
2022/03/30 00:05:08;;;;;;;6.00;3.00;;;16.60;85.50;;;;;;1997420;28;20539;-73
2022/03/30 00:06:06;;;;;;;4.70;2.90;;;16.60;85.50;;;;;;1997275;28;20196;-74
2022/03/30 00:07:05;;;;;;;7.00;2.40;;;16.60;85.80;;;;;;1997324;28;20189;-73
2022/03/30 00:08:05;;;;;;;4.27;2.67;;;16.60;85.60;;;;;;1997374;28;20415;-74
2022/03/30 00:09:03;;;;;;;4.95;2.92;;;16.60;85.50;;;;;;1996684;28;20173;-74
2022/03/30 00:10:04;;;;;;;6.67;3.23;;;16.60;85.50;;;;;;1996942;28;20206;-73
2022/03/30 00:11:02;;;;;;;5.05;2.35;;;16.60;85.50;;;;;;1997250;28;20169;-73
2022/03/30 00:12:01;;;;;;;6.40;3.17;;;16.60;85.50;;;;;;1997345;28;20180;-74
2022/03/30 00:13:00;;;;;;;4.10;2.23;;;16.60;85.50;;;;;;1997415;28;20241;-73
2022/03/30 00:13:59;;;;;;;5.78;2.85;;;16.60;85.50;;;;;;1997389;28;20519;-73
2022/03/30 00:14:57;;;;;;;4.67;3.43;;;16.60;85.50;;;;;;1997336;28;20221;-74
2022/03/30 00:15:56;;;;;;;4.37;2.53;;;16.60;85.80;;;;;;1997180;28;20229;-73
2022/03/30 00:16:54;;;;;;;8.53;3.23;;;16.60;85.50;;;;;;1997359;28;20181;-72
2022/03/30 00:17:53;;;;;;;4.13;2.87;;;16.60;85.70;;;;;;1997391;28;20257;-73
2022/03/30 00:18:52;;;;;;;3.95;2.25;;;16.60;85.80;;;;;;1997289;28;20174;-74
2022/03/30 00:19:50;;;;;;;7.30;3.00;;;16.60;85.80;;;;;;1997412;28;20184;-73
2022/03/30 00:20:49;;;;;;;6.60;3.27;;;16.60;85.70;;;;;;1997322;28;20205;-74
2022/03/30 00:21:48;;;;;;;5.40;3.30;;;16.50;85.50;;;;;;1997254;28;20216;-73
2022/03/30 00:22:47;;;;;;;3.93;2.50;;;16.50;85.60;;;;;;1997286;28;20301;-73
2022/03/30 00:23:45;;;;;;;5.50;3.30;;;16.60;85.70;;;;;;1997268;28;20178;-75
2022/03/30 00:24:44;;;;;;;5.20;3.07;;;16.50;85.60;;;;;;1996638;28;20189;-73
2022/03/30 00:25:42;;;;;;;6.33;2.80;;;16.60;85.70;;;;;;1996747;28;20197;-76
2022/03/30 00:26:41;;;;;;;3.60;2.20;;;16.60;85.90;;;;;;1997218;28;20178;-74
2022/03/30 00:27:43;;;;;;;3.80;2.60;;;16.50;85.90;;;;;;1996681;28;20212;-73
2022/03/30 00:28:42;;;;;;;3.88;2.42;;;16.60;85.90;;;;;;1996749;28;20530;-73
2022/03/30 00:29:40;;;;;;;7.03;3.00;;;16.60;85.80;;;;;;1997254;28;20240;-74
2022/03/30 00:30:39;;;;;;;4.97;2.93;;;16.50;85.70;;;;;;1997283;28;20650;-73
2022/03/30 00:31:37;;;;;;;4.67;2.50;;;16.60;86.00;;;;;;1997254;28;20182;-73
2022/03/30 00:32:36;;;;;;;5.53;3.10;;;16.60;85.90;;;;;;1996579;28;20193;-74
2022/03/30 00:33:35;;;;;;;4.70;2.43;;;16.60;86.00;;;;;;1996659;28;20174;-73
2022/03/30 00:34:33;;;;;;;3.53;2.63;;;16.50;85.80;;;;;;1996229;28;20174;-74
2022/03/30 00:35:32;;;;;;;6.27;2.70;;;16.50;85.90;;;;;;1996537;28;20182;-73
2022/03/30 00:36:30;;;;;;;5.20;2.43;;;16.50;85.90;;;;;;1997163;28;20173;-74
2022/03/30 00:37:29;;;;;;;3.80;2.33;;;16.50;85.80;;;;;;1996654;28;20186;-73
2022/03/30 00:38:28;;;;;;;5.50;3.60;;;16.50;85.70;;;;;;1996765;28;20212;-74
2022/03/30 00:39:26;;;;;;;3.40;2.70;;;16.50;85.70;;;;;;1996111;28;20229;-73
2022/03/30 00:40:25;;;;;;;5.60;2.67;;;16.50;85.70;;;;;;1996606;28;20165;-73
2022/03/30 00:41:27;;;;;;;5.63;3.17;;;16.50;85.80;;;;;;1997193;28;20227;-74
2022/03/30 00:42:26;;;;;;;6.97;2.90;;;16.50;85.80;;;;;;1997184;28;20416;-74
2022/03/30 00:43:25;;;;;;;5.30;2.93;;;16.50;85.80;;;;;;1996419;28;20569;-73
2022/03/30 00:44:23;;;;;;;6.80;2.80;;;16.50;85.90;;;;;;1996502;28;20520;-75
2022/03/30 00:45:23;;;;;;;4.70;2.70;;;16.50;85.90;;;;;;1997066;28;20216;-74
2022/03/30 00:46:22;;;;;;;3.78;2.55;;;16.50;85.80;;;;;;1997141;28;20765;-74
2022/03/30 00:47:25;;;;;;;6.60;2.50;;;16.60;85.90;;;;;;1997070;28;20217;-73
2022/03/30 00:48:23;;;;;;;6.25;2.75;;;16.50;85.70;;;;;;1997211;28;20166;-75
2022/03/30 00:49:22;;;;;;;4.97;2.53;;;16.50;85.80;;;;;;1997288;28;20677;-73
2022/03/30 00:50:23;;;;;;;4.80;2.33;;;16.50;85.80;;;;;;1996417;28;20206;-73
2022/03/30 00:51:21;;;;;;;5.80;2.95;;;16.50;85.90;;;;;;1996713;28;20178;-72
2022/03/30 00:52:22;;;;;;;4.03;2.73;;;16.50;85.80;;;;;;1997239;28;20254;-72
2022/03/30 00:53:20;;;;;;;4.43;2.35;;;16.50;85.80;;;;;;1997123;28;20177;-73
2022/03/30 00:54:19;;;;;;;5.40;2.70;;;16.50;85.80;;;;;;1997018;28;20198;-74
2022/03/30 00:55:18;;;;;;;4.07;2.47;;;16.50;85.80;;;;;;1997025;28;20623;-73
2022/03/30 00:56:16;;;;;;;5.37;2.27;;;16.50;85.80;;;;;;1996943;28;20193;-73
2022/03/30 00:57:18;;;;;;;2.90;2.23;;;16.50;85.80;;;;;;1996964;28;20165;-74
2022/03/30 00:58:17;;;;;;;5.47;2.30;;;16.50;85.80;;;;;;1997030;28;20177;-73
2022/03/30 00:59:15;;;;;;;4.43;2.40;;;16.50;85.80;;;;;;1997116;28;20601;-73
2022/03/30 01:00:16;;;;;;;6.63;2.70;;;16.50;85.90;;;;;;1996947;28;20182;-74
2022/03/30 01:01:14;;;;;;;3.08;2.05;;;16.50;85.80;;;;;;1997087;28;20177;-74
2022/03/30 01:02:13;;;;;;;4.97;2.47;;;16.50;85.80;;;;;;1996974;28;20181;-74
2022/03/30 01:03:12;;;;;;;5.03;2.70;;;16.50;85.70;;;;;;1996928;28;20642;-73
2022/03/30 01:04:11;;;;;;;10.00;2.87;;;16.50;85.80;;;;;;1997032;28;20545;-72
2022/03/30 01:05:10;;;;;;;6.67;2.70;;;16.50;85.90;;;;;;1996912;28;20185;-73
2022/03/30 01:06:09;;;;;;;6.22;2.50;;;16.50;86.60;;;;;;1996876;28;20193;-73
2022/03/30 01:07:07;;;;;;;5.23;2.63;;;16.50;86.00;;;;;;1996496;28;20261;-73
2022/03/30 01:08:06;;;;;;;3.17;2.40;;;16.50;86.00;;;;;;1996486;28;20193;-73
2022/03/30 01:09:04;;;;;;;4.57;2.30;;;16.50;86.10;;;;;;1996854;28;20638;-73
2022/03/30 01:10:04;;;;;;;3.33;2.37;;;16.50;86.00;;;;;;1997106;28;20205;-73
2022/03/30 01:11:03;;;;;;;4.22;2.28;;;16.50;86.00;;;;;;1996922;28;20185;-73
2022/03/30 01:12:03;;;;;;;6.70;2.70;;;16.50;86.00;;;;;;1996496;28;20276;-74
2022/03/30 01:13:03;;;;;;;3.55;2.55;;;16.50;86.00;;;;;;1996875;28;20166;-74
2022/03/30 01:14:02;;;;;;;3.00;2.10;;;16.50;86.00;;;;;;1997033;28;20170;-74
2022/03/30 01:15:01;;;;;;;2.88;2.30;;;16.50;85.90;;;;;;1996913;28;20198;-74
2022/03/30 01:16:02;;;;;;;5.77;3.47;;;16.50;85.80;;;;;;1996716;28;20578;-72
2022/03/30 01:17:00;;;;;;;3.35;2.25;;;16.50;85.80;;;;;;1996849;28;20249;-73
2022/03/30 01:17:59;;;;;;;4.83;2.53;;;16.40;85.80;;;;;;1996906;28;20181;-74
2022/03/30 01:19:06;;;;;;;3.57;2.30;;;16.50;85.90;;;;;;1996879;28;20180;-73
2022/03/30 01:20:06;;;;;;;4.03;2.70;;;16.50;85.90;;;;;;1996907;28;20286;-73
2022/03/30 01:21:05;;;;;;;6.30;2.97;;;16.40;86.10;;;;;;1996869;28;20305;-73
2022/03/30 01:22:07;;;;;;;3.45;2.17;;;16.40;86.20;;;;;;1996137;28;20264;-73
2022/03/30 01:23:06;;;;;;;4.15;2.30;;;16.40;86.20;;;;;;1996231;28;20169;-73
2022/03/30 01:24:06;;;;;;;4.73;2.47;;;16.50;86.40;;;;;;1996940;28;20209;-73
2022/03/30 01:25:05;;;;;;;9.70;2.65;;;16.40;86.90;;;;;;1996792;28;20300;-74
2022/03/30 01:26:05;;;;;;;5.78;2.42;;;16.40;86.20;;;;;;1996783;28;20603;-73
2022/03/30 01:27:04;;;;;;;5.95;2.33;;;16.40;86.20;;;;;;1996807;28;20178;-73
2022/03/30 01:28:04;;;;;;;5.57;2.78;;;16.40;86.20;;;;;;1996869;28;20712;-73
2022/03/30 01:32:56;;;;;;;4.20;2.50;;;16.40;86.30;;;;;;1996803;28;20606;-73
2022/03/30 01:33:55;;;;;;;3.10;2.80;;;16.40;86.20;;;;;;1997051;28;20165;-73
2022/03/30 01:34:55;;;;;;;5.33;2.50;;;16.40;86.20;;;;;;1996905;28;20586;-74
2022/03/30 01:35:54;;;;;;;8.20;2.55;;;16.40;86.10;;;;;;1995756;28;20458;-73
2022/03/30 01:36:52;;;;;;;7.97;2.67;;;16.40;86.20;;;;;;1996040;28;20177;-73
2022/03/30 01:37:51;;;;;;;4.57;2.70;;;16.40;86.10;;;;;;1996148;28;20170;-72
2022/03/30 01:38:49;;;;;;;4.97;2.43;;;16.40;86.10;;;;;;1996754;28;20178;-74
2022/03/30 01:39:48;;;;;;;5.13;2.20;;;16.40;86.00;;;;;;1996705;28;20245;-74
2022/03/30 01:40:47;;;;;;;3.57;2.37;;;16.40;86.60;;;;;;1996914;28;20257;-72
2022/03/30 01:41:45;;;;;;;3.90;3.03;;;16.40;85.80;;;;;;1996759;28;20412;-72
2022/03/30 01:42:44;;;;;;;3.73;2.43;;;16.40;86.00;;;;;;1996756;28;20208;-73
2022/03/30 01:43:42;;;;;;;5.07;3.17;;;16.40;86.00;;;;;;1996911;28;20178;-72
2022/03/30 01:44:41;;;;;;;5.63;2.60;;;16.40;86.00;;;;;;1996143;28;20551;-73
2022/03/30 01:45:39;;;;;;;2.57;2.10;;;16.40;85.80;;;;;;1997373;28;20273;-73
2022/03/30 01:46:38;;;;;;;2.63;1.87;;;16.40;86.10;;;;;;2000823;28;20627;-73
2022/03/30 01:47:39;;;;;;;5.20;2.50;;;16.40;85.90;;;;;;2001019;28;20173;-73
2022/03/30 01:48:37;;;;;;;3.50;2.35;;;16.40;86.00;;;;;;2000714;28;20408;-73
2022/03/30 01:49:37;;;;;;;4.67;2.77;;;16.40;86.10;;;;;;2001304;28;20272;-73
2022/03/30 01:50:36;;;;;;;5.13;2.42;;;16.50;85.90;;;;;;2003320;28;20169;-73
2022/03/30 01:51:35;;;;;;;3.15;2.38;;;16.40;86.00;;;;;;2004588;28;20627;-72
2022/03/30 01:52:34;;;;;;;5.50;3.10;;;16.40;86.00;;;;;;2004311;28;20245;-73
2022/03/30 01:53:32;;;;;;;5.27;2.80;;;16.40;86.00;;;;;;2001586;28;20178;-72
2022/03/30 01:54:35;;;;;;;2.83;1.90;;;16.40;86.10;;;;;;1999153;28;20217;-73
2022/03/30 01:55:34;;;;;;;4.60;2.60;;;16.40;86.10;;;;;;1998367;28;20173;-74
2022/03/30 01:56:33;;;;;;;6.43;2.77;;;16.40;86.00;;;;;;1997331;28;20188;-73
2022/03/30 01:57:31;;;;;;;6.30;2.97;;;16.40;86.00;;;;;;1997585;28;20173;-72
2022/03/30 01:58:30;;;;;;;7.60;2.43;;;16.40;86.00;;;;;;1996346;28;20174;-73
2022/03/30 01:59:28;;;;;;;3.90;2.60;;;16.40;86.20;;;;;;1996323;28;20651;-72
2022/03/30 02:00:27;;;;;;;6.27;2.20;;;16.40;86.20;;;;;;1996844;28;20193;-73
2022/03/30 02:01:26;;;;;;;3.63;2.10;;;16.40;86.20;;;;;;1996814;28;20268;-73
2022/03/30 02:02:24;;;;;;;2.93;2.30;;;16.40;86.10;;;;;;1996357;28;20181;-73
2022/03/30 02:03:23;;;;;;;6.03;2.30;;;16.40;86.00;;;;;;1996830;28;20655;-73
2022/03/30 02:04:24;;;;;;;6.23;2.40;;;16.40;86.20;;;;;;1996790;28;20187;-73
2022/03/30 02:05:22;;;;;;;3.72;2.13;;;16.40;86.10;;;;;;1996675;28;20412;-75
2022/03/30 02:06:24;;;;;;;3.83;2.50;;;16.50;86.30;;;;;;1996766;28;20178;-73
2022/03/30 02:07:22;;;;;;;3.88;2.10;;;16.40;85.90;;;;;;1996826;28;20177;-72
2022/03/30 02:08:21;;;;;;;5.37;2.73;;;16.40;85.90;;;;;;1996807;28;20186;-73
2022/03/30 02:09:20;;;;;;;3.70;2.10;;;16.40;86.00;;;;;;1996730;28;20178;-72
2022/03/30 02:10:18;;;;;;;5.63;2.20;;;16.40;85.90;;;;;;1996759;28;20201;-73
2022/03/30 02:11:17;;;;;;;7.30;2.43;;;16.40;86.10;;;;;;1996715;28;20965;-73
2022/03/30 02:12:16;;;;;;;7.63;2.10;;;16.40;86.00;;;;;;1996597;28;20178;-73
2022/03/30 02:13:15;;;;;;;12.38;2.65;;;16.30;85.90;;;;;;1996748;28;20622;-72
2022/03/30 02:14:13;;;;;;;4.50;2.67;;;16.40;86.10;;;;;;1996494;28;20181;-73
2022/03/30 02:15:13;;;;;;;3.03;2.03;;;16.30;86.00;;;;;;1996407;28;20436;-74
2022/03/30 02:16:12;;;;;;;4.10;2.42;;;16.30;86.00;;;;;;1995803;28;20209;-74
2022/03/30 02:17:10;;;;;;;3.00;2.20;;;16.40;86.00;;;;;;1996083;28;20205;-74
2022/03/30 02:18:09;;;;;;;4.63;2.23;;;16.40;86.10;;;;;;1996519;28;20181;-74
2022/03/30 02:19:08;;;;;;;2.73;2.43;;;16.40;86.00;;;;;;1996562;28;20217;-73
2022/03/30 02:20:08;;;;;;;3.37;2.10;;;16.40;86.10;;;;;;1996641;28;20169;-72
2022/03/30 02:21:07;;;;;;;4.72;2.35;;;16.40;86.10;;;;;;1996020;28;20232;-72
2022/03/30 02:22:05;;;;;;;4.53;2.10;;;16.40;86.20;;;;;;1995921;28;20596;-73
2022/03/30 02:23:04;;;;;;;3.57;2.40;;;16.30;86.10;;;;;;1996575;28;20200;-73
2022/03/30 02:24:03;;;;;;;4.80;2.37;;;16.30;86.20;;;;;;1996175;28;20212;-73
2022/03/30 02:25:01;;;;;;;3.90;2.60;;;16.40;86.30;;;;;;1997512;28;20180;-73
2022/03/30 02:26:00;;;;;;;4.53;2.27;;;16.40;86.20;;;;;;1998131;28;20185;-74
2022/03/30 02:26:59;;;;;;;4.07;2.00;;;16.40;86.10;;;;;;1998185;28;20174;-73
2022/03/30 02:27:58;;;;;;;4.57;2.83;;;16.40;86.30;;;;;;1998149;28;20580;-74
2022/03/30 02:28:56;;;;;;;3.50;2.50;;;16.40;86.30;;;;;;1998175;28;20545;-73
2022/03/30 02:29:55;;;;;;;4.40;2.07;;;16.40;86.30;;;;;;1998016;28;20470;-73
2022/03/30 02:30:54;;;;;;;3.73;2.43;;;16.40;86.40;;;;;;1998069;28;20162;-73
2022/03/30 02:31:53;;;;;;;4.90;2.77;;;16.40;86.40;;;;;;1998106;28;20232;-73
2022/03/30 02:32:51;;;;;;;3.43;1.93;;;16.40;86.30;;;;;;1998061;28;20893;-74
2022/03/30 02:33:50;;;;;;;3.90;2.60;;;16.30;86.30;;;;;;1997370;28;20447;-73
2022/03/30 02:34:49;;;;;;;3.77;2.53;;;16.30;86.20;;;;;;1997468;28;20607;-74
2022/03/30 02:35:48;;;;;;;2.60;1.95;;;16.30;86.20;;;;;;1997901;28;20428;-73
2022/03/30 02:36:48;;;;;;;4.40;2.47;;;16.30;86.20;;;;;;1998267;28;20189;-74
2022/03/30 02:37:46;;;;;;;4.07;2.65;;;16.40;86.30;;;;;;1998113;28;20504;-73
2022/03/30 02:38:45;;;;;;;4.80;2.83;;;16.40;86.40;;;;;;1997909;28;20184;-73
2022/03/30 02:39:44;;;;;;;4.10;2.40;;;16.30;86.30;;;;;;1998125;28;20213;-73
2022/03/30 02:40:44;;;;;;;2.90;2.20;;;16.40;86.30;;;;;;1998053;28;20197;-73
2022/03/30 02:41:42;;;;;;;7.13;2.22;;;16.40;86.40;;;;;;1997971;28;20213;-72
2022/03/30 02:42:41;;;;;;;4.30;2.17;;;16.40;86.50;;;;;;1998003;28;20174;-74
2022/03/30 02:43:40;;;;;;;4.00;2.17;;;16.40;86.30;;;;;;1997967;28;20177;-73
2022/03/30 02:44:38;;;;;;;8.15;1.83;;;16.40;86.40;;;;;;1998049;28;20173;-73
2022/03/30 02:45:38;;;;;;;4.63;2.33;;;16.40;86.30;;;;;;1997898;28;20184;-73
2022/03/30 02:46:37;;;;;;;2.67;1.80;;;16.30;86.20;;;;;;1998103;28;20169;-73
2022/03/30 02:48:53;;;;;;;3.10;2.30;;;16.30;86.30;;;;;;1998092;28;20202;-73
2022/03/30 02:49:51;;;;;;;3.27;1.83;;;16.40;86.50;;;;;;1997859;28;20166;-74
2022/03/30 02:50:52;;;;;;;2.50;1.93;;;16.40;86.40;;;;;;1998003;28;20250;-74
2022/03/30 02:51:51;;;;;;;3.40;1.95;;;16.40;86.50;;;;;;1997952;28;20170;-73
2022/03/30 02:52:50;;;;;;;4.10;2.17;;;16.30;86.30;;;;;;1997242;28;20201;-74
2022/03/30 02:53:49;;;;;;;3.17;2.30;;;16.40;86.50;;;;;;1997400;28;20611;-73
2022/03/30 02:54:47;;;;;;;2.90;2.33;;;16.30;86.30;;;;;;1998019;28;20235;-73
2022/03/30 02:55:47;;;;;;;2.60;1.77;;;16.30;86.20;;;;;;1997992;28;20635;-74
2022/03/30 02:56:45;;;;;;;4.43;2.15;;;16.30;86.20;;;;;;1997240;28;20184;-73
2022/03/30 02:57:46;;;;;;;2.70;1.70;;;16.30;86.30;;;;;;1997300;28;20267;-73
2022/03/30 02:58:44;;;;;;;4.07;1.80;;;16.30;86.20;;;;;;1997895;28;20541;-74
2022/03/30 02:59:43;;;;;;;1.90;1.63;;;16.30;86.30;;;;;;1998020;28;20260;-72
2022/03/30 03:00:42;;;;;;;3.80;2.07;;;16.40;86.40;;;;;;1997203;28;20201;-72
2022/03/30 03:01:41;;;;;;;4.90;2.15;;;16.40;86.30;;;;;;1997267;28;20182;-74
2022/03/30 03:02:39;;;;;;;3.70;2.10;;;16.30;86.30;;;;;;1997765;28;20200;-74
2022/03/30 03:03:38;;;;;;;7.63;1.90;;;16.30;86.50;;;;;;1997883;28;20630;-72
2022/03/30 03:04:38;;;;;;;4.73;1.73;;;16.30;86.40;;;;;;1997824;28;20193;-74
2022/03/30 03:05:38;;;;;;;3.45;1.60;;;16.30;86.50;;;;;;1997798;28;20228;-72
2022/03/30 03:06:36;;;;;;;7.03;2.30;;;16.40;86.60;;;;;;1997850;28;20205;-72
2022/03/30 03:07:35;;;;;;;3.53;1.97;;;16.30;86.60;;;;;;1997770;28;20174;-73
2022/03/30 03:08:34;;;;;;;2.80;2.20;;;16.30;86.40;;;;;;1997767;28;20483;-73
2022/03/30 03:09:32;;;;;;;3.40;1.97;;;16.30;86.30;;;;;;1997709;28;20177;-73
2022/03/30 03:10:32;;;;;;;2.17;1.60;;;16.30;86.20;;;;;;1997739;28;20304;-72
2022/03/30 03:11:31;;;;;;;6.15;1.70;;;16.30;86.20;;;;;;1997830;28;20631;-73
2022/03/30 03:12:29;;;;;;;3.87;2.47;;;16.30;86.20;;;;;;1997759;28;20174;-72
2022/03/30 03:13:28;;;;;;;3.43;2.07;;;16.30;86.20;;;;;;1997922;28;20177;-73
2022/03/30 03:14:26;;;;;;;3.87;2.30;;;16.30;86.20;;;;;;1997747;28;20170;-73
2022/03/30 03:15:25;;;;;;;3.60;1.90;;;16.30;86.30;;;;;;1997739;28;20568;-75
2022/03/30 03:16:24;;;;;;;3.07;2.00;;;16.30;86.30;;;;;;1997654;28;20244;-73
2022/03/30 03:17:23;;;;;;;3.55;2.05;;;16.30;86.30;;;;;;1997706;28;20658;-73
2022/03/30 03:18:21;;;;;;;3.47;1.60;;;16.30;86.40;;;;;;1997847;28;20182;-73
2022/03/30 03:19:20;;;;;;;5.20;1.97;;;16.30;86.20;;;;;;1997769;28;20182;-73
2022/03/30 03:20:18;;;;;;;2.87;1.97;;;16.30;86.30;;;;;;1997754;28;20261;-74
2022/03/30 03:21:17;;;;;;;4.50;2.47;;;16.30;86.40;;;;;;1997864;28;20292;-73
2022/03/30 03:22:15;;;;;;;5.20;1.77;;;16.30;86.40;;;;;;1997705;28;20185;-73
2022/03/30 03:23:15;;;;;;;6.33;2.30;;;16.30;86.40;;;;;;1997735;28;20209;-73
2022/03/30 03:24:14;;;;;;;3.53;1.77;;;16.30;86.40;;;;;;1997864;28;20210;-73
2022/03/30 03:25:13;;;;;;;5.37;2.20;;;16.30;86.40;;;;;;1997774;28;20674;-73
2022/03/30 03:26:11;;;;;;;3.40;1.53;;;16.30;86.30;;;;;;1997618;28;20186;-72
2022/03/30 03:27:10;;;;;;;3.50;2.20;;;16.30;86.30;;;;;;1997829;28;20163;-73
2022/03/30 03:28:10;;;;;;;2.40;1.53;;;16.30;86.30;;;;;;1997805;28;20535;-73
2022/03/30 03:29:08;;;;;;;2.83;1.73;;;16.30;86.90;;;;;;1997073;28;20235;-73
2022/03/30 03:30:08;;;;;;;4.80;1.90;;;16.30;86.30;;;;;;1996986;28;20267;-72
2022/03/30 03:31:07;;;;;;;2.80;1.80;;;16.30;86.20;;;;;;1997787;28;20560;-72
2022/03/30 03:32:06;;;;;;;4.33;2.23;;;16.30;86.20;;;;;;1996894;28;20185;-73
2022/03/30 03:33:06;;;;;;;5.65;2.47;;;16.30;86.20;;;;;;1997068;28;20170;-73
2022/03/30 03:34:05;;;;;;;3.63;2.03;;;16.30;86.40;;;;;;1997582;28;20180;-73
2022/03/30 03:35:04;;;;;;;3.50;1.90;;;16.30;86.50;;;;;;1997272;28;20665;-71
2022/03/30 03:36:03;;;;;;;6.57;1.70;;;16.30;86.50;;;;;;1997524;28;20193;-73
2022/03/30 03:37:01;;;;;;;3.37;2.13;;;16.30;86.40;;;;;;1997710;28;20181;-73
2022/03/30 03:38:01;;;;;;;3.90;2.10;;;16.30;86.70;;;;;;1997710;28;20417;-73
2022/03/30 03:39:00;;;;;;;2.47;1.95;;;16.30;86.70;;;;;;1996967;28;20177;-74
2022/03/30 03:39:59;;;;;;;3.30;1.80;;;16.30;86.60;;;;;;1996922;28;20189;-72
2022/03/30 03:40:58;;;;;;;5.68;1.92;;;16.30;86.60;;;;;;1997588;28;20412;-73
2022/03/30 03:41:57;;;;;;;3.75;1.50;;;16.30;86.70;;;;;;1997690;28;20253;-73
2022/03/30 03:42:55;;;;;;;3.47;1.90;;;16.30;86.60;;;;;;1997725;28;20532;-73
2022/03/30 03:43:54;;;;;;;3.20;1.90;;;16.30;86.70;;;;;;1997652;28;20611;-73
2022/03/30 03:44:53;;;;;;;4.13;2.30;;;16.30;86.60;;;;;;1997568;28;20182;-73
2022/03/30 03:45:52;;;;;;;3.65;1.85;;;16.30;86.50;;;;;;1997491;28;20189;-73
2022/03/30 03:46:50;;;;;;;3.63;2.07;;;16.30;86.60;;;;;;1997485;28;20261;-72
2022/03/30 03:47:51;;;;;;;2.30;1.63;;;16.20;86.40;;;;;;1997547;28;20257;-71
2022/03/30 03:48:49;;;;;;;3.13;2.25;;;16.20;86.60;;;;;;1997530;28;20166;-71
2022/03/30 03:49:48;;;;;;;3.83;1.77;;;16.30;86.70;;;;;;1997453;28;20559;-72
2022/03/30 03:50:46;;;;;;;3.90;2.67;;;16.30;86.60;;;;;;1997507;28;20646;-72
2022/03/30 03:51:45;;;;;;;2.77;1.77;;;16.20;86.50;;;;;;1997517;28;20170;-72
2022/03/30 03:52:44;;;;;;;8.87;2.23;;;16.30;86.70;;;;;;1997673;28;20538;-73
2022/03/30 03:53:42;;;;;;;4.30;1.80;;;16.20;86.60;;;;;;1996938;28;20181;-72
2022/03/30 03:54:41;;;;;;;3.03;1.90;;;16.20;86.60;;;;;;1996880;28;20514;-72
2022/03/30 03:55:40;;;;;;;5.77;1.90;;;16.20;86.60;;;;;;1997426;28;20193;-73
2022/03/30 03:56:38;;;;;;;7.53;1.93;;;16.20;86.60;;;;;;1997505;28;20911;-73
2022/03/30 03:57:39;;;;;;;2.23;1.63;;;16.30;86.50;;;;;;1997576;28;20189;-71
2022/03/30 03:58:37;;;;;;;3.13;2.00;;;16.30;86.50;;;;;;1996746;28;20174;-72
2022/03/30 03:59:36;;;;;;;3.30;1.90;;;16.20;86.40;;;;;;1996822;28;20178;-72
2022/03/30 04:00:35;;;;;;;2.10;1.57;;;16.30;86.70;;;;;;1996964;28;20185;-72
2022/03/30 04:01:34;;;;;;;3.30;1.87;;;16.30;86.70;;;;;;1997512;28;20196;-71
2022/03/30 04:02:33;;;;;;;4.57;1.77;;;16.30;86.70;;;;;;1988978;28;20961;-72
2022/03/30 04:03:31;;;;;;;2.80;2.03;;;16.30;86.70;;;;;;1989241;28;20174;-71
2022/03/30 04:04:30;;;;;;;2.07;1.63;;;16.30;86.70;;;;;;1996814;28;20484;-71
2022/03/30 04:05:29;;;;;;;3.40;1.50;;;16.30;86.70;;;;;;1997255;28;20212;-72
2022/03/30 04:06:29;;;;;;;3.03;1.97;;;16.30;86.70;;;;;;1996622;28;20186;-72
2022/03/30 04:07:27;;;;;;;5.47;2.05;;;16.30;86.80;;;;;;1983763;28;20660;-72
2022/03/30 04:08:26;;;;;;;3.57;1.87;;;16.30;86.80;;;;;;1996311;28;20589;-72
2022/03/30 04:09:24;;;;;;;4.80;1.83;;;16.30;86.80;;;;;;1997273;28;20186;-74
2022/03/30 04:10:23;;;;;;;5.37;2.20;;;16.30;86.80;;;;;;1997423;28;20201;-73
2022/03/30 04:11:22;;;;;;;2.83;1.90;;;16.20;86.70;;;;;;1997561;28;20166;-72
2022/03/30 04:12:20;;;;;;;1.93;1.73;;;16.20;86.90;;;;;;1997441;28;20174;-72
2022/03/30 04:13:19;;;;;;;2.50;1.80;;;16.20;86.90;;;;;;1996675;28;20177;-72
2022/03/30 04:14:17;;;;;;;2.83;1.60;;;16.20;87.00;;;;;;1996759;28;20180;-72
2022/03/30 04:15:16;;;;;;;4.03;1.80;;;16.20;86.90;;;;;;1997352;28;20176;-72
2022/03/30 04:16:16;;;;;;;2.33;1.60;;;16.30;86.90;;;;;;1997137;28;20221;-73
2022/03/30 04:17:14;;;;;;;7.13;1.88;;;16.20;86.90;;;;;;1996748;28;20269;-73
2022/03/30 04:18:13;;;;;;;3.70;1.60;;;16.20;87.10;;;;;;1996576;28;20661;-73
2022/03/30 04:19:11;;;;;;;1.87;1.40;;;16.20;87.00;;;;;;1996797;28;20220;-73
2022/03/30 04:20:12;;;;;;;5.53;2.03;;;16.20;87.10;;;;;;1997382;28;20587;-72
2022/03/30 04:21:11;;;;;;;3.75;1.73;;;16.20;86.90;;;;;;1997406;28;20186;-72
2022/03/30 04:22:09;;;;;;;2.60;1.40;;;16.20;87.00;;;;;;1997276;28;20173;-73
2022/03/30 04:23:12;;;;;;;2.27;1.23;;;16.20;87.20;;;;;;1998131;28;20581;-73
2022/03/30 04:24:14;;;;;;;5.10;1.30;;;16.20;87.00;;;;;;2002592;28;20250;-74
2022/03/30 04:25:13;;;;;;;3.40;1.60;;;16.20;87.30;;;;;;1999000;28;20189;-72
2022/03/30 04:26:12;;;;;;;4.73;1.70;;;16.30;87.30;;;;;;1996722;28;20240;-73
2022/03/30 04:27:10;;;;;;;2.23;1.50;;;16.20;86.90;;;;;;1997277;28;20224;-72
2022/03/30 04:28:09;;;;;;;2.40;1.73;;;16.20;87.00;;;;;;1997374;28;20424;-72
2022/03/30 04:29:07;;;;;;;4.53;1.53;;;16.20;87.10;;;;;;1997268;28;20185;-71
2022/03/30 04:30:07;;;;;;;1.53;1.23;;;16.20;87.20;;;;;;1997152;28;20702;-72
2022/03/30 04:31:05;;;;;;;2.33;1.58;;;16.20;87.10;;;;;;1997243;28;20170;-72
2022/03/30 04:32:04;;;;;;;1.77;1.33;;;16.20;87.00;;;;;;1997160;28;20173;-72
2022/03/30 04:33:03;;;;;;;3.20;1.83;;;16.20;87.10;;;;;;1997404;28;20687;-72
2022/03/30 04:34:01;;;;;;;2.67;1.83;;;16.20;87.40;;;;;;1998202;28;20241;-72
2022/03/30 04:35:00;;;;;;;4.00;2.00;;;16.20;87.20;;;;;;1999868;28;20184;-73
2022/03/30 04:35:59;;;;;;;2.50;1.70;;;16.20;87.20;;;;;;1999145;28;20189;-73
2022/03/30 04:36:57;;;;;;;2.27;1.30;;;16.20;87.20;;;;;;1999398;28;20193;-72
2022/03/30 04:37:57;;;;;;;4.30;2.20;;;16.20;87.10;;;;;;2000503;28;20170;-74
2022/03/30 04:38:55;;;;;;;3.85;2.85;;;16.20;87.20;;;;;;2002155;28;20208;-73
2022/03/30 04:39:54;;;;;;;4.17;1.90;;;16.20;87.00;;;;;;2002550;28;20178;-74
2022/03/30 04:40:54;;;;;;;2.70;1.60;;;16.20;86.90;;;;;;2004286;28;20193;-71
2022/03/30 04:41:52;;;;;;;3.30;2.38;;;16.20;87.00;;;;;;2001578;28;20184;-72
2022/03/30 04:42:51;;;;;;;3.57;1.83;;;16.20;87.10;;;;;;1999531;28;20366;-71
2022/03/30 04:43:50;;;;;;;2.40;1.43;;;16.10;87.00;;;;;;1999182;28;20170;-73
2022/03/30 04:44:48;;;;;;;5.73;1.70;;;16.20;87.20;;;;;;1998422;28;20455;-72
2022/03/30 04:45:47;;;;;;;3.63;1.63;;;16.20;87.20;;;;;;1997969;28;20532;-72
2022/03/30 04:46:45;;;;;;;2.50;1.47;;;16.20;87.20;;;;;;1997346;28;20177;-73
2022/03/30 04:47:44;;;;;;;6.00;1.47;;;16.20;87.20;;;;;;1997471;28;20196;-72
2022/03/30 04:48:43;;;;;;;2.73;1.77;;;16.20;87.10;;;;;;1997524;28;20192;-73
2022/03/30 04:49:42;;;;;;;2.00;1.50;;;16.20;87.20;;;;;;1996393;28;20240;-73
2022/03/30 04:50:41;;;;;;;3.00;1.65;;;16.20;87.20;;;;;;1996800;28;20177;-73
2022/03/30 04:51:40;;;;;;;3.13;1.90;;;16.20;87.30;;;;;;1997209;28;20178;-73
2022/03/30 04:52:39;;;;;;;1.90;1.63;;;16.20;87.40;;;;;;1996969;28;20174;-73
2022/03/30 04:53:37;;;;;;;2.42;1.77;;;16.20;87.40;;;;;;1997074;28;20542;-72
2022/03/30 04:54:36;;;;;;;1.93;1.70;;;16.20;87.10;;;;;;1997040;28;20178;-72
2022/03/30 04:55:36;;;;;;;5.10;1.70;;;16.20;87.20;;;;;;1997207;28;20216;-72
2022/03/30 04:56:36;;;;;;;3.92;2.20;;;16.20;87.20;;;;;;1997170;28;20173;-74
2022/03/30 04:57:37;;;;;;;1.85;1.30;;;16.20;87.20;;;;;;1997287;28;20181;-73
2022/03/30 04:58:36;;;;;;;3.33;2.00;;;16.20;87.20;;;;;;1997041;28;20634;-72
2022/03/30 04:59:35;;;;;;;3.13;2.03;;;16.20;87.30;;;;;;1996357;28;20285;-73
2022/03/30 05:00:33;;;;;;;3.57;1.53;;;16.20;87.30;;;;;;1996418;28;20260;-73
2022/03/30 05:01:32;;;;;;;1.70;1.30;;;16.20;87.40;;;;;;1996336;28;20235;-73
2022/03/30 05:02:33;;;;;;;1.70;1.50;;;16.20;87.40;;;;;;1996406;28;20185;-73
2022/03/30 05:03:31;;;;;;;2.72;1.65;;;16.20;87.30;;;;;;1996365;28;20182;-73
2022/03/30 05:04:32;;;;;;;4.23;2.40;;;16.20;87.40;;;;;;1996593;28;20189;-74
2022/03/30 05:05:31;;;;;;;2.85;1.77;;;16.10;87.30;;;;;;1996315;28;20188;-73
2022/03/30 05:06:29;;;;;;;3.20;1.70;;;16.20;87.40;;;;;;1996347;28;20693;-73
2022/03/30 05:07:28;;;;;;;3.00;1.63;;;16.20;87.60;;;;;;1997001;28;20177;-73
2022/03/30 05:08:26;;;;;;;2.07;1.73;;;16.20;87.70;;;;;;1997104;28;20252;-73
2022/03/30 05:09:25;;;;;;;2.53;1.87;;;16.20;87.50;;;;;;1996954;28;20186;-73
2022/03/30 05:10:24;;;;;;;3.37;1.80;;;16.20;87.60;;;;;;1996795;28;20225;-73
2022/03/30 05:11:23;;;;;;;2.85;1.52;;;16.20;87.70;;;;;;1996215;28;20189;-73
2022/03/30 05:12:21;;;;;;;5.87;1.67;;;16.20;87.80;;;;;;1996307;28;20240;-73